sensor_id;sensor_type;location;lat;lon;timestamp;pressure;altitude;pressure_sealevel;temperature;humidity
25944;BME280;13742;49.306;8.636;2022-11-03T00:00:42;100926.01;;;10.72;80.40
25944;BME280;13742;49.306;8.636;2022-11-03T00:01:43;100932.65;;;10.73;80.84
25944;BME280;13742;49.306;8.636;2022-11-03T00:02:42;100928.55;;;10.74;80.78
25944;BME280;13742;49.306;8.636;2022-11-03T00:03:42;100927.64;;;10.73;80.67
25944;BME280;13742;49.306;8.636;2022-11-03T00:04:42;100928.47;;;10.75;80.64
25944;BME280;13742;49.306;8.636;2022-11-03T00:05:47;100927.31;;;10.75;80.62
25944;BME280;13742;49.306;8.636;2022-11-03T00:06:43;100928.70;;;10.70;80.34
25944;BME280;13742;49.306;8.636;2022-11-03T00:07:42;100931.27;;;10.71;80.73
25944;BME280;13742;49.306;8.636;2022-11-03T00:08:42;100930.67;;;10.73;80.68
25944;BME280;13742;49.306;8.636;2022-11-03T00:09:43;100931.66;;;10.73;80.55
25944;BME280;13742;49.306;8.636;2022-11-03T00:10:42;100930.77;;;10.73;80.66
25944;BME280;13742;49.306;8.636;2022-11-03T00:11:43;100930.69;;;10.70;80.79
25944;BME280;13742;49.306;8.636;2022-11-03T00:12:42;100929.48;;;10.72;80.85
25944;BME280;13742;49.306;8.636;2022-11-03T00:13:42;100928.16;;;10.72;80.88
25944;BME280;13742;49.306;8.636;2022-11-03T00:14:42;100923.53;;;10.72;80.55
25944;BME280;13742;49.306;8.636;2022-11-03T00:16:42;100920.56;;;10.67;80.69
25944;BME280;13742;49.306;8.636;2022-11-03T00:17:44;100918.78;;;10.68;81.05
25944;BME280;13742;49.306;8.636;2022-11-03T00:18:42;100917.63;;;10.70;80.73
25944;BME280;13742;49.306;8.636;2022-11-03T00:19:42;100914.41;;;10.69;80.88
25944;BME280;13742;49.306;8.636;2022-11-03T00:20:42;100912.47;;;10.67;80.63
25944;BME280;13742;49.306;8.636;2022-11-03T00:21:43;100913.27;;;10.65;80.75
25944;BME280;13742;49.306;8.636;2022-11-03T00:22:42;100911.08;;;10.63;81.09
25944;BME280;13742;49.306;8.636;2022-11-03T00:23:43;100914.98;;;10.63;80.93
25944;BME280;13742;49.306;8.636;2022-11-03T00:24:42;100918.07;;;10.63;80.82
25944;BME280;13742;49.306;8.636;2022-11-03T00:25:42;100920.03;;;10.63;81.24
25944;BME280;13742;49.306;8.636;2022-11-03T00:26:42;100919.02;;;10.63;81.26
25944;BME280;13742;49.306;8.636;2022-11-03T00:27:42;100917.99;;;10.64;80.97
25944;BME280;13742;49.306;8.636;2022-11-03T00:28:46;100925.34;;;10.63;80.73
25944;BME280;13742;49.306;8.636;2022-11-03T00:29:42;100921.84;;;10.63;81.13
25944;BME280;13742;49.306;8.636;2022-11-03T00:30:42;100922.03;;;10.63;81.02
25944;BME280;13742;49.306;8.636;2022-11-03T00:31:43;100915.75;;;10.61;81.07
25944;BME280;13742;49.306;8.636;2022-11-03T00:32:42;100919.20;;;10.63;81.24
25944;BME280;13742;49.306;8.636;2022-11-03T00:33:42;100919.50;;;10.63;80.80
25944;BME280;13742;49.306;8.636;2022-11-03T00:34:42;100916.36;;;10.61;80.92
25944;BME280;13742;49.306;8.636;2022-11-03T00:35:42;100917.02;;;10.59;80.79
25944;BME280;13742;49.306;8.636;2022-11-03T00:36:42;100915.16;;;10.59;80.97
25944;BME280;13742;49.306;8.636;2022-11-03T00:37:42;100913.09;;;10.59;80.94
25944;BME280;13742;49.306;8.636;2022-11-03T00:38:43;100910.31;;;10.58;80.97
25944;BME280;13742;49.306;8.636;2022-11-03T00:39:42;100913.25;;;10.57;81.14
25944;BME280;13742;49.306;8.636;2022-11-03T00:40:42;100910.72;;;10.56;81.13
25944;BME280;13742;49.306;8.636;2022-11-03T00:41:42;100905.06;;;10.54;81.17
25944;BME280;13742;49.306;8.636;2022-11-03T00:42:42;100901.52;;;10.54;81.10
25944;BME280;13742;49.306;8.636;2022-11-03T00:43:42;100896.25;;;10.51;80.95
25944;BME280;13742;49.306;8.636;2022-11-03T00:44:42;100892.12;;;10.49;81.23
25944;BME280;13742;49.306;8.636;2022-11-03T00:45:42;100888.08;;;10.50;81.21
25944;BME280;13742;49.306;8.636;2022-11-03T00:46:42;100885.16;;;10.50;81.31
25944;BME280;13742;49.306;8.636;2022-11-03T00:47:57;100883.31;;;10.51;81.23
25944;BME280;13742;49.306;8.636;2022-11-03T00:48:42;100882.02;;;10.50;81.21
25944;BME280;13742;49.306;8.636;2022-11-03T00:49:42;100882.45;;;10.48;81.28
25944;BME280;13742;49.306;8.636;2022-11-03T00:50:42;100880.81;;;10.47;81.24
25944;BME280;13742;49.306;8.636;2022-11-03T00:51:42;100884.09;;;10.46;81.24
25944;BME280;13742;49.306;8.636;2022-11-03T00:52:42;100883.98;;;10.46;81.24
25944;BME280;13742;49.306;8.636;2022-11-03T00:53:46;100884.78;;;10.47;81.23
25944;BME280;13742;49.306;8.636;2022-11-03T00:54:42;100884.78;;;10.47;81.30
25944;BME280;13742;49.306;8.636;2022-11-03T00:55:47;100881.38;;;10.49;81.26
25944;BME280;13742;49.306;8.636;2022-11-03T00:56:43;100879.47;;;10.46;81.21
25944;BME280;13742;49.306;8.636;2022-11-03T00:57:42;100878.39;;;10.45;81.43
25944;BME280;13742;49.306;8.636;2022-11-03T00:58:42;100873.91;;;10.46;81.49
25944;BME280;13742;49.306;8.636;2022-11-03T00:59:42;100875.59;;;10.47;81.54
25944;BME280;13742;49.306;8.636;2022-11-03T01:00:42;100878.25;;;10.44;81.29
25944;BME280;13742;49.306;8.636;2022-11-03T01:01:43;100875.80;;;10.43;81.47
25944;BME280;13742;49.306;8.636;2022-11-03T01:02:42;100876.84;;;10.42;81.45
25944;BME280;13742;49.306;8.636;2022-11-03T01:04:00;100871.44;;;10.41;81.54
25944;BME280;13742;49.306;8.636;2022-11-03T01:04:47;100873.45;;;10.43;81.50
25944;BME280;13742;49.306;8.636;2022-11-03T01:05:47;100868.08;;;10.40;81.61
25944;BME280;13742;49.306;8.636;2022-11-03T01:06:48;100868.90;;;10.39;81.54
25944;BME280;13742;49.306;8.636;2022-11-03T01:07:42;100867.05;;;10.38;81.66
25944;BME280;13742;49.306;8.636;2022-11-03T01:08:42;100868.75;;;10.38;81.86
25944;BME280;13742;49.306;8.636;2022-11-03T01:09:42;100867.78;;;10.35;81.85
25944;BME280;13742;49.306;8.636;2022-11-03T01:10:47;100865.72;;;10.36;81.76
25944;BME280;13742;49.306;8.636;2022-11-03T01:11:47;100869.58;;;10.36;81.80
25944;BME280;13742;49.306;8.636;2022-11-03T01:12:42;100866.77;;;10.35;81.71
25944;BME280;13742;49.306;8.636;2022-11-03T01:13:42;100863.94;;;10.32;81.81
25944;BME280;13742;49.306;8.636;2022-11-03T01:14:46;100862.33;;;10.33;82.03
25944;BME280;13742;49.306;8.636;2022-11-03T01:15:42;100865.55;;;10.34;81.68
25944;BME280;13742;49.306;8.636;2022-11-03T01:16:42;100865.88;;;10.34;81.82
25944;BME280;13742;49.306;8.636;2022-11-03T01:17:42;100862.41;;;10.34;81.96
25944;BME280;13742;49.306;8.636;2022-11-03T01:18:42;100862.97;;;10.35;81.75
25944;BME280;13742;49.306;8.636;2022-11-03T01:19:42;100866.66;;;10.36;82.00
25944;BME280;13742;49.306;8.636;2022-11-03T01:20:42;100866.69;;;10.37;82.12
25944;BME280;13742;49.306;8.636;2022-11-03T01:21:42;100865.77;;;10.39;82.01
25944;BME280;13742;49.306;8.636;2022-11-03T01:22:42;100865.05;;;10.39;81.96
25944;BME280;13742;49.306;8.636;2022-11-03T01:23:42;100863.59;;;10.40;81.92
25944;BME280;13742;49.306;8.636;2022-11-03T01:24:42;100864.05;;;10.37;81.84
25944;BME280;13742;49.306;8.636;2022-11-03T01:25:42;100862.88;;;10.39;82.08
25944;BME280;13742;49.306;8.636;2022-11-03T01:26:42;100861.80;;;10.39;81.91
25944;BME280;13742;49.306;8.636;2022-11-03T01:27:42;100857.81;;;10.38;82.04
25944;BME280;13742;49.306;8.636;2022-11-03T01:28:43;100857.48;;;10.38;81.90
25944;BME280;13742;49.306;8.636;2022-11-03T01:29:42;100850.52;;;10.39;82.07
25944;BME280;13742;49.306;8.636;2022-11-03T01:30:42;100847.19;;;10.39;81.89
25944;BME280;13742;49.306;8.636;2022-11-03T01:31:42;100849.01;;;10.40;82.17
25944;BME280;13742;49.306;8.636;2022-11-03T01:32:42;100847.80;;;10.40;82.26
25944;BME280;13742;49.306;8.636;2022-11-03T01:33:44;100846.91;;;10.38;82.15
25944;BME280;13742;49.306;8.636;2022-11-03T01:34:42;100841.77;;;10.39;82.29
25944;BME280;13742;49.306;8.636;2022-11-03T01:35:42;100842.66;;;10.40;82.31
25944;BME280;13742;49.306;8.636;2022-11-03T01:36:43;100843.51;;;10.40;82.23
25944;BME280;13742;49.306;8.636;2022-11-03T01:37:42;100840.84;;;10.40;82.15
25944;BME280;13742;49.306;8.636;2022-11-03T01:38:42;100843.31;;;10.39;82.11
25944;BME280;13742;49.306;8.636;2022-11-03T01:39:42;100843.97;;;10.39;82.15
25944;BME280;13742;49.306;8.636;2022-11-03T01:40:42;100847.32;;;10.37;82.08
25944;BME280;13742;49.306;8.636;2022-11-03T01:41:43;100847.17;;;10.35;82.25
25944;BME280;13742;49.306;8.636;2022-11-03T01:42:42;100851.30;;;10.36;82.27
25944;BME280;13742;49.306;8.636;2022-11-03T01:43:42;100853.78;;;10.36;82.16
25944;BME280;13742;49.306;8.636;2022-11-03T01:44:45;100847.42;;;10.36;82.47
25944;BME280;13742;49.306;8.636;2022-11-03T01:45:42;100847.90;;;10.36;82.60
25944;BME280;13742;49.306;8.636;2022-11-03T01:47:42;100842.94;;;10.36;82.35
25944;BME280;13742;49.306;8.636;2022-11-03T01:48:57;100842.39;;;10.36;82.16
25944;BME280;13742;49.306;8.636;2022-11-03T01:50:42;100838.53;;;10.33;82.41
25944;BME280;13742;49.306;8.636;2022-11-03T01:51:43;100835.96;;;10.31;82.26
25944;BME280;13742;49.306;8.636;2022-11-03T01:52:46;100836.29;;;10.31;82.53
25944;BME280;13742;49.306;8.636;2022-11-03T01:53:43;100835.45;;;10.33;82.60
25944;BME280;13742;49.306;8.636;2022-11-03T01:54:43;100829.22;;;10.30;82.53
25944;BME280;13742;49.306;8.636;2022-11-03T01:55:42;100830.79;;;10.31;82.65
25944;BME280;13742;49.306;8.636;2022-11-03T01:56:42;100828.86;;;10.30;82.47
25944;BME280;13742;49.306;8.636;2022-11-03T01:57:47;100826.05;;;10.30;82.47
25944;BME280;13742;49.306;8.636;2022-11-03T01:58:44;100826.55;;;10.30;82.22
25944;BME280;13742;49.306;8.636;2022-11-03T01:59:42;100824.94;;;10.28;82.17
25944;BME280;13742;49.306;8.636;2022-11-03T02:00:42;100823.06;;;10.26;82.39
25944;BME280;13742;49.306;8.636;2022-11-03T02:01:43;100825.66;;;10.23;82.64
25944;BME280;13742;49.306;8.636;2022-11-03T02:02:42;100825.31;;;10.23;82.75
25944;BME280;13742;49.306;8.636;2022-11-03T02:03:44;100828.85;;;10.22;82.77
25944;BME280;13742;49.306;8.636;2022-11-03T02:04:42;100826.81;;;10.23;82.84
25944;BME280;13742;49.306;8.636;2022-11-03T02:05:42;100827.06;;;10.22;82.93
25944;BME280;13742;49.306;8.636;2022-11-03T02:06:42;100823.73;;;10.22;83.24
25944;BME280;13742;49.306;8.636;2022-11-03T02:08:02;100824.16;;;10.23;82.96
25944;BME280;13742;49.306;8.636;2022-11-03T02:08:44;100819.91;;;10.22;82.81
25944;BME280;13742;49.306;8.636;2022-11-03T02:09:42;100821.13;;;10.22;82.62
25944;BME280;13742;49.306;8.636;2022-11-03T02:10:43;100819.47;;;10.22;83.01
25944;BME280;13742;49.306;8.636;2022-11-03T02:11:47;100818.77;;;10.19;82.76
25944;BME280;13742;49.306;8.636;2022-11-03T02:12:42;100816.98;;;10.18;82.84
25944;BME280;13742;49.306;8.636;2022-11-03T02:13:42;100817.56;;;10.19;83.01
25944;BME280;13742;49.306;8.636;2022-11-03T02:14:44;100812.30;;;10.18;82.88
25944;BME280;13742;49.306;8.636;2022-11-03T02:15:42;100814.20;;;10.19;82.54
25944;BME280;13742;49.306;8.636;2022-11-03T02:16:43;100813.27;;;10.19;82.70
25944;BME280;13742;49.306;8.636;2022-11-03T02:17:42;100813.93;;;10.19;82.64
25944;BME280;13742;49.306;8.636;2022-11-03T02:18:42;100814.67;;;10.20;82.71
25944;BME280;13742;49.306;8.636;2022-11-03T02:19:43;100811.48;;;10.20;82.64
25944;BME280;13742;49.306;8.636;2022-11-03T02:20:42;100810.50;;;10.20;82.68
25944;BME280;13742;49.306;8.636;2022-11-03T02:22:03;100809.16;;;10.19;82.57
25944;BME280;13742;49.306;8.636;2022-11-03T02:23:45;100804.80;;;10.19;82.30
25944;BME280;13742;49.306;8.636;2022-11-03T02:24:52;100799.98;;;10.18;82.37
25944;BME280;13742;49.306;8.636;2022-11-03T02:25:46;100804.66;;;10.18;82.42
25944;BME280;13742;49.306;8.636;2022-11-03T02:26:42;100799.70;;;10.16;82.32
25944;BME280;13742;49.306;8.636;2022-11-03T02:27:42;100796.75;;;10.15;82.33
25944;BME280;13742;49.306;8.636;2022-11-03T02:28:42;100797.09;;;10.12;82.37
25944;BME280;13742;49.306;8.636;2022-11-03T02:29:42;100791.64;;;10.10;82.11
25944;BME280;13742;49.306;8.636;2022-11-03T02:30:44;100792.63;;;10.08;82.17
25944;BME280;13742;49.306;8.636;2022-11-03T02:31:45;100789.23;;;10.07;82.47
25944;BME280;13742;49.306;8.636;2022-11-03T02:32:53;100789.72;;;10.05;82.46
25944;BME280;13742;49.306;8.636;2022-11-03T02:35:02;100783.26;;;10.04;82.46
25944;BME280;13742;49.306;8.636;2022-11-03T02:35:45;100780.34;;;10.03;82.46
25944;BME280;13742;49.306;8.636;2022-11-03T02:36:46;100777.33;;;10.00;82.33
25944;BME280;13742;49.306;8.636;2022-11-03T02:37:44;100774.86;;;9.98;82.63
25944;BME280;13742;49.306;8.636;2022-11-03T02:39:43;100769.35;;;9.96;82.93
25944;BME280;13742;49.306;8.636;2022-11-03T02:40:45;100768.28;;;9.95;82.91
25944;BME280;13742;49.306;8.636;2022-11-03T02:41:42;100768.91;;;9.94;82.85
25944;BME280;13742;49.306;8.636;2022-11-03T02:42:43;100765.77;;;9.92;83.15
25944;BME280;13742;49.306;8.636;2022-11-03T02:43:42;100760.64;;;9.92;82.97
25944;BME280;13742;49.306;8.636;2022-11-03T02:44:42;100765.00;;;9.92;83.01
25944;BME280;13742;49.306;8.636;2022-11-03T02:45:42;100760.59;;;9.92;83.26
25944;BME280;13742;49.306;8.636;2022-11-03T02:46:43;100762.36;;;9.92;83.23
25944;BME280;13742;49.306;8.636;2022-11-03T02:47:42;100762.80;;;9.92;83.00
25944;BME280;13742;49.306;8.636;2022-11-03T02:48:42;100758.17;;;9.92;83.01
25944;BME280;13742;49.306;8.636;2022-11-03T02:50:42;100758.23;;;9.94;83.93
25944;BME280;13742;49.306;8.636;2022-11-03T02:51:42;100758.49;;;9.95;83.62
25944;BME280;13742;49.306;8.636;2022-11-03T02:52:44;100755.34;;;9.93;84.06
25944;BME280;13742;49.306;8.636;2022-11-03T02:53:45;100752.16;;;9.93;83.48
25944;BME280;13742;49.306;8.636;2022-11-03T02:54:42;100751.72;;;9.93;83.14
25944;BME280;13742;49.306;8.636;2022-11-03T02:56:45;100744.15;;;9.92;83.24
25944;BME280;13742;49.306;8.636;2022-11-03T03:00:44;100731.37;;;9.93;83.72
25944;BME280;13742;49.306;8.636;2022-11-03T03:01:53;100733.44;;;9.92;83.55
25944;BME280;13742;49.306;8.636;2022-11-03T03:02:45;100729.20;;;9.92;83.47
25944;BME280;13742;49.306;8.636;2022-11-03T03:03:47;100728.23;;;9.91;83.70
25944;BME280;13742;49.306;8.636;2022-11-03T03:04:45;100734.01;;;9.91;83.58
25944;BME280;13742;49.306;8.636;2022-11-03T03:05:42;100727.81;;;9.90;83.30
25944;BME280;13742;49.306;8.636;2022-11-03T03:06:43;100727.33;;;9.90;83.35
25944;BME280;13742;49.306;8.636;2022-11-03T03:07:43;100723.97;;;9.90;83.36
25944;BME280;13742;49.306;8.636;2022-11-03T03:08:43;100722.59;;;9.90;83.78
25944;BME280;13742;49.306;8.636;2022-11-03T03:09:46;100717.61;;;9.89;83.86
25944;BME280;13742;49.306;8.636;2022-11-03T03:10:43;100713.87;;;9.89;83.73
25944;BME280;13742;49.306;8.636;2022-11-03T03:11:42;100710.57;;;9.89;83.59
25944;BME280;13742;49.306;8.636;2022-11-03T03:12:45;100708.56;;;9.88;83.82
25944;BME280;13742;49.306;8.636;2022-11-03T03:13:42;100707.05;;;9.88;83.59
25944;BME280;13742;49.306;8.636;2022-11-03T03:14:43;100710.02;;;9.88;83.98
25944;BME280;13742;49.306;8.636;2022-11-03T03:17:04;100703.91;;;9.85;83.66
25944;BME280;13742;49.306;8.636;2022-11-03T03:17:48;100703.73;;;9.82;83.45
25944;BME280;13742;49.306;8.636;2022-11-03T03:19:46;100701.57;;;9.78;84.23
25944;BME280;13742;49.306;8.636;2022-11-03T03:20:49;100698.89;;;9.76;83.83
25944;BME280;13742;49.306;8.636;2022-11-03T03:21:43;100698.56;;;9.74;83.99
25944;BME280;13742;49.306;8.636;2022-11-03T03:25:44;100695.09;;;9.72;84.71
25944;BME280;13742;49.306;8.636;2022-11-03T03:26:43;100689.86;;;9.72;85.07
25944;BME280;13742;49.306;8.636;2022-11-03T03:27:45;100692.06;;;9.73;85.09
25944;BME280;13742;49.306;8.636;2022-11-03T03:28:43;100691.48;;;9.72;84.93
25944;BME280;13742;49.306;8.636;2022-11-03T03:29:47;100691.18;;;9.72;85.11
25944;BME280;13742;49.306;8.636;2022-11-03T03:30:42;100694.20;;;9.73;85.27
25944;BME280;13742;49.306;8.636;2022-11-03T03:31:44;100693.38;;;9.73;85.22
25944;BME280;13742;49.306;8.636;2022-11-03T03:32:43;100694.83;;;9.71;85.23
25944;BME280;13742;49.306;8.636;2022-11-03T03:33:42;100691.94;;;9.70;85.25
25944;BME280;13742;49.306;8.636;2022-11-03T03:34:42;100690.30;;;9.71;85.39
25944;BME280;13742;49.306;8.636;2022-11-03T03:35:43;100689.13;;;9.72;85.49
25944;BME280;13742;49.306;8.636;2022-11-03T03:36:42;100687.47;;;9.72;85.30
25944;BME280;13742;49.306;8.636;2022-11-03T03:37:44;100688.54;;;9.71;85.16
25944;BME280;13742;49.306;8.636;2022-11-03T03:38:43;100687.68;;;9.70;84.91
25944;BME280;13742;49.306;8.636;2022-11-03T03:39:44;100682.73;;;9.70;85.19
25944;BME280;13742;49.306;8.636;2022-11-03T03:40:43;100682.88;;;9.70;85.37
25944;BME280;13742;49.306;8.636;2022-11-03T03:41:43;100677.42;;;9.68;85.30
25944;BME280;13742;49.306;8.636;2022-11-03T03:42:42;100678.17;;;9.69;85.48
25944;BME280;13742;49.306;8.636;2022-11-03T03:43:42;100678.84;;;9.70;85.13
25944;BME280;13742;49.306;8.636;2022-11-03T03:44:42;100676.09;;;9.70;85.58
25944;BME280;13742;49.306;8.636;2022-11-03T03:45:42;100679.16;;;9.70;85.17
25944;BME280;13742;49.306;8.636;2022-11-03T03:47:42;100679.08;;;9.70;85.48
25944;BME280;13742;49.306;8.636;2022-11-03T03:48:42;100675.05;;;9.71;85.53
25944;BME280;13742;49.306;8.636;2022-11-03T03:49:42;100671.25;;;9.71;85.50
25944;BME280;13742;49.306;8.636;2022-11-03T03:50:42;100669.75;;;9.72;85.87
25944;BME280;13742;49.306;8.636;2022-11-03T03:51:42;100666.51;;;9.73;85.75
25944;BME280;13742;49.306;8.636;2022-11-03T03:52:42;100658.45;;;9.72;85.75
25944;BME280;13742;49.306;8.636;2022-11-03T03:53:42;100657.05;;;9.72;85.79
25944;BME280;13742;49.306;8.636;2022-11-03T03:54:42;100656.39;;;9.71;85.63
25944;BME280;13742;49.306;8.636;2022-11-03T03:55:43;100650.97;;;9.70;86.18
25944;BME280;13742;49.306;8.636;2022-11-03T03:56:44;100652.42;;;9.69;86.34
25944;BME280;13742;49.306;8.636;2022-11-03T03:57:42;100651.61;;;9.67;86.53
25944;BME280;13742;49.306;8.636;2022-11-03T03:58:42;100649.99;;;9.67;86.64
25944;BME280;13742;49.306;8.636;2022-11-03T03:59:43;100647.94;;;9.68;86.70
25944;BME280;13742;49.306;8.636;2022-11-03T04:00:42;100646.79;;;9.70;87.04
25944;BME280;13742;49.306;8.636;2022-11-03T04:01:42;100646.57;;;9.70;86.50
25944;BME280;13742;49.306;8.636;2022-11-03T04:02:42;100647.10;;;9.71;86.75
25944;BME280;13742;49.306;8.636;2022-11-03T04:03:42;100647.78;;;9.72;86.87
25944;BME280;13742;49.306;8.636;2022-11-03T04:04:42;100649.66;;;9.70;86.72
25944;BME280;13742;49.306;8.636;2022-11-03T04:05:42;100652.04;;;9.70;86.46
25944;BME280;13742;49.306;8.636;2022-11-03T04:06:42;100650.28;;;9.71;86.61
25944;BME280;13742;49.306;8.636;2022-11-03T04:07:47;100644.15;;;9.70;86.80
25944;BME280;13742;49.306;8.636;2022-11-03T04:08:42;100647.17;;;9.69;86.95
25944;BME280;13742;49.306;8.636;2022-11-03T04:09:42;100645.28;;;9.69;87.00
25944;BME280;13742;49.306;8.636;2022-11-03T04:10:57;100643.05;;;9.69;87.13
25944;BME280;13742;49.306;8.636;2022-11-03T04:11:47;100644.70;;;9.70;87.35
25944;BME280;13742;49.306;8.636;2022-11-03T04:12:47;100643.52;;;9.71;87.14
25944;BME280;13742;49.306;8.636;2022-11-03T04:13:47;100642.95;;;9.72;87.41
25944;BME280;13742;49.306;8.636;2022-11-03T04:14:47;100641.16;;;9.72;87.19
25944;BME280;13742;49.306;8.636;2022-11-03T04:15:47;100638.08;;;9.72;87.01
25944;BME280;13742;49.306;8.636;2022-11-03T04:16:47;100632.20;;;9.73;86.99
25944;BME280;13742;49.306;8.636;2022-11-03T04:17:47;100629.88;;;9.73;87.27
25944;BME280;13742;49.306;8.636;2022-11-03T04:18:47;100630.76;;;9.74;86.92
25944;BME280;13742;49.306;8.636;2022-11-03T04:19:47;100629.16;;;9.74;86.92
25944;BME280;13742;49.306;8.636;2022-11-03T04:20:47;100626.36;;;9.74;87.10
25944;BME280;13742;49.306;8.636;2022-11-03T04:21:47;100628.04;;;9.75;87.05
25944;BME280;13742;49.306;8.636;2022-11-03T04:22:42;100623.02;;;9.72;87.17
25944;BME280;13742;49.306;8.636;2022-11-03T04:23:42;100623.58;;;9.73;87.06
25944;BME280;13742;49.306;8.636;2022-11-03T04:24:46;100624.98;;;9.73;87.15
25944;BME280;13742;49.306;8.636;2022-11-03T04:26:42;100623.45;;;9.73;86.88
25944;BME280;13742;49.306;8.636;2022-11-03T04:27:43;100624.05;;;9.74;86.94
25944;BME280;13742;49.306;8.636;2022-11-03T04:28:42;100622.78;;;9.73;86.75
25944;BME280;13742;49.306;8.636;2022-11-03T04:29:42;100621.95;;;9.73;86.66
25944;BME280;13742;49.306;8.636;2022-11-03T04:30:42;100622.19;;;9.74;87.11
25944;BME280;13742;49.306;8.636;2022-11-03T04:31:42;100622.70;;;9.74;87.18
25944;BME280;13742;49.306;8.636;2022-11-03T04:32:43;100624.41;;;9.74;86.96
25944;BME280;13742;49.306;8.636;2022-11-03T04:33:42;100621.11;;;9.75;87.01
25944;BME280;13742;49.306;8.636;2022-11-03T04:34:45;100620.27;;;9.71;86.94
25944;BME280;13742;49.306;8.636;2022-11-03T04:35:43;100618.97;;;9.73;87.08
25944;BME280;13742;49.306;8.636;2022-11-03T04:36:42;100621.54;;;9.72;86.77
25944;BME280;13742;49.306;8.636;2022-11-03T04:37:43;100622.59;;;9.72;86.68
25944;BME280;13742;49.306;8.636;2022-11-03T04:38:42;100617.81;;;9.73;87.06
25944;BME280;13742;49.306;8.636;2022-11-03T04:39:42;100615.25;;;9.73;87.19
25944;BME280;13742;49.306;8.636;2022-11-03T04:40:46;100616.91;;;9.75;87.40
25944;BME280;13742;49.306;8.636;2022-11-03T04:41:42;100616.98;;;9.76;87.22
25944;BME280;13742;49.306;8.636;2022-11-03T04:42:43;100616.83;;;9.77;86.93
25944;BME280;13742;49.306;8.636;2022-11-03T04:43:43;100618.78;;;9.78;86.78
25944;BME280;13742;49.306;8.636;2022-11-03T04:44:42;100620.55;;;9.78;86.73
25944;BME280;13742;49.306;8.636;2022-11-03T04:45:43;100620.48;;;9.77;86.64
25944;BME280;13742;49.306;8.636;2022-11-03T04:46:42;100615.99;;;9.74;86.49
25944;BME280;13742;49.306;8.636;2022-11-03T04:47:42;100619.23;;;9.74;86.42
25944;BME280;13742;49.306;8.636;2022-11-03T04:48:42;100616.08;;;9.73;86.75
25944;BME280;13742;49.306;8.636;2022-11-03T04:49:46;100618.22;;;9.72;86.50
25944;BME280;13742;49.306;8.636;2022-11-03T04:50:42;100617.33;;;9.71;86.37
25944;BME280;13742;49.306;8.636;2022-11-03T04:51:42;100619.89;;;9.71;86.52
25944;BME280;13742;49.306;8.636;2022-11-03T04:52:42;100614.61;;;9.69;86.43
25944;BME280;13742;49.306;8.636;2022-11-03T04:53:44;100613.40;;;9.69;86.54
25944;BME280;13742;49.306;8.636;2022-11-03T04:54:42;100612.34;;;9.67;86.37
25944;BME280;13742;49.306;8.636;2022-11-03T04:55:43;100610.26;;;9.67;86.41
25944;BME280;13742;49.306;8.636;2022-11-03T04:56:42;100610.17;;;9.66;86.58
25944;BME280;13742;49.306;8.636;2022-11-03T04:57:42;100601.84;;;9.65;86.85
25944;BME280;13742;49.306;8.636;2022-11-03T04:58:42;100599.15;;;9.65;86.27
25944;BME280;13742;49.306;8.636;2022-11-03T04:59:43;100596.81;;;9.64;86.72
25944;BME280;13742;49.306;8.636;2022-11-03T05:00:42;100595.47;;;9.63;86.66
25944;BME280;13742;49.306;8.636;2022-11-03T05:01:42;100596.02;;;9.63;87.44
25944;BME280;13742;49.306;8.636;2022-11-03T05:02:43;100594.34;;;9.62;86.82
25944;BME280;13742;49.306;8.636;2022-11-03T05:03:42;100591.59;;;9.62;87.32
25944;BME280;13742;49.306;8.636;2022-11-03T05:04:42;100588.78;;;9.62;87.41
25944;BME280;13742;49.306;8.636;2022-11-03T05:05:42;100589.86;;;9.63;87.65
25944;BME280;13742;49.306;8.636;2022-11-03T05:06:48;100584.14;;;9.63;87.39
25944;BME280;13742;49.306;8.636;2022-11-03T05:07:42;100586.56;;;9.63;87.30
25944;BME280;13742;49.306;8.636;2022-11-03T05:08:43;100586.01;;;9.63;87.32
25944;BME280;13742;49.306;8.636;2022-11-03T05:09:42;100586.15;;;9.62;87.34
25944;BME280;13742;49.306;8.636;2022-11-03T05:10:42;100587.22;;;9.61;87.63
25944;BME280;13742;49.306;8.636;2022-11-03T05:11:45;100586.80;;;9.62;87.62
25944;BME280;13742;49.306;8.636;2022-11-03T05:12:42;100584.20;;;9.61;87.69
25944;BME280;13742;49.306;8.636;2022-11-03T05:13:42;100589.58;;;9.61;87.85
25944;BME280;13742;49.306;8.636;2022-11-03T05:14:42;100586.22;;;9.59;87.86
25944;BME280;13742;49.306;8.636;2022-11-03T05:15:42;100583.55;;;9.60;87.97
25944;BME280;13742;49.306;8.636;2022-11-03T05:16:42;100583.20;;;9.59;87.70
25944;BME280;13742;49.306;8.636;2022-11-03T05:17:42;100581.96;;;9.60;87.82
25944;BME280;13742;49.306;8.636;2022-11-03T05:18:43;100581.61;;;9.61;88.05
25944;BME280;13742;49.306;8.636;2022-11-03T05:19:42;100580.98;;;9.60;87.82
25944;BME280;13742;49.306;8.636;2022-11-03T05:20:47;100577.11;;;9.61;87.94
25944;BME280;13742;49.306;8.636;2022-11-03T05:21:42;100569.58;;;9.61;87.92
25944;BME280;13742;49.306;8.636;2022-11-03T05:22:42;100568.28;;;9.60;87.43
25944;BME280;13742;49.306;8.636;2022-11-03T05:23:43;100565.33;;;9.56;87.29
25944;BME280;13742;49.306;8.636;2022-11-03T05:24:42;100561.36;;;9.53;87.82
25944;BME280;13742;49.306;8.636;2022-11-03T05:25:43;100558.70;;;9.54;88.71
25944;BME280;13742;49.306;8.636;2022-11-03T05:26:42;100554.03;;;9.54;88.42
25944;BME280;13742;49.306;8.636;2022-11-03T05:27:42;100549.91;;;9.54;88.57
25944;BME280;13742;49.306;8.636;2022-11-03T05:28:44;100545.46;;;9.53;88.19
25944;BME280;13742;49.306;8.636;2022-11-03T05:29:42;100545.13;;;9.54;88.24
25944;BME280;13742;49.306;8.636;2022-11-03T05:30:42;100545.89;;;9.52;88.40
25944;BME280;13742;49.306;8.636;2022-11-03T05:31:42;100538.34;;;9.51;88.09
25944;BME280;13742;49.306;8.636;2022-11-03T05:32:42;100538.67;;;9.51;88.13
25944;BME280;13742;49.306;8.636;2022-11-03T05:33:46;100534.55;;;9.51;88.44